createdAt,value
2022-10-20T00:01:19.868Z,15.40
2022-10-20T00:03:48.414Z,15.40
2022-10-20T00:06:21.165Z,15.40
2022-10-20T00:08:48.900Z,15.40
2022-10-20T00:11:19.282Z,15.40
2022-10-20T00:13:48.210Z,15.40
2022-10-20T00:16:16.268Z,15.30
2022-10-20T00:18:43.606Z,15.40
2022-10-20T00:21:19.235Z,15.40
2022-10-20T00:23:46.287Z,15.40
2022-10-20T00:26:19.618Z,15.30
2022-10-20T00:28:47.708Z,15.40
2022-10-20T00:31:15.527Z,15.50
2022-10-20T00:33:42.610Z,15.40
2022-10-20T00:36:13.031Z,15.40
2022-10-20T00:38:40.076Z,15.50
2022-10-20T00:41:08.222Z,15.50
2022-10-20T00:44:03.156Z,15.40
2022-10-20T00:46:41.689Z,15.40
2022-10-20T00:49:22.091Z,15.30
2022-10-20T00:51:50.611Z,15.40
2022-10-20T00:54:22.542Z,15.50
2022-10-20T00:56:51.539Z,15.50
2022-10-20T00:59:22.474Z,15.60
2022-10-20T01:01:50.198Z,15.50
2022-10-20T01:04:17.896Z,15.30
2022-10-20T01:06:44.738Z,15.40
2022-10-20T01:09:11.870Z,15.30
2022-10-20T01:11:49.284Z,15.30
2022-10-20T01:14:28.003Z,15.30
2022-10-20T01:17:32.120Z,15.20
2022-10-20T01:20:27.598Z,15.30
2022-10-20T01:23:15.689Z,15.50
2022-10-20T01:26:08.122Z,15.40
2022-10-20T01:28:52.379Z,15.40
2022-10-20T01:31:43.341Z,15.30
2022-10-20T01:34:41.416Z,15.30
2022-10-20T01:37:48.441Z,15.30
2022-10-20T01:40:22.675Z,15.40
2022-10-20T01:42:52.393Z,15.30
2022-10-20T01:45:21.904Z,15.40
2022-10-20T01:47:51.942Z,15.50
2022-10-20T01:50:20.323Z,15.50
2022-10-20T01:52:47.560Z,15.30
2022-10-20T01:55:17.477Z,15.20
2022-10-20T01:58:14.734Z,15.40
2022-10-20T02:00:43.836Z,15.30
2022-10-20T02:03:22.817Z,15.20
2022-10-20T02:06:29.869Z,15.20
2022-10-20T02:09:01.603Z,15.20
2022-10-20T02:11:58.830Z,15.10
2022-10-20T02:14:26.134Z,15.10
2022-10-20T02:16:58.451Z,15.10
2022-10-20T02:19:30.197Z,15.00
2022-10-20T02:21:58.509Z,15.00
2022-10-20T02:24:29.230Z,15.00
2022-10-20T02:27:01.683Z,15.10
2022-10-20T02:29:33.187Z,15.40
2022-10-20T02:32:00.411Z,15.30
2022-10-20T02:34:28.312Z,15.20
2022-10-20T02:36:59.555Z,15.10
2022-10-20T02:39:27.075Z,15.20
2022-10-20T02:41:54.942Z,15.20
2022-10-20T02:44:23.018Z,15.10
2022-10-20T02:46:49.993Z,15.10
2022-10-20T02:49:17.021Z,15.10
2022-10-20T02:51:44.235Z,15.10
2022-10-20T02:54:13.893Z,15.10
2022-10-20T02:56:40.690Z,15.10
2022-10-20T02:59:08.766Z,15.20
2022-10-20T03:01:35.762Z,15.20
2022-10-20T03:04:03.107Z,15.20
2022-10-20T03:06:30.131Z,15.20
2022-10-20T03:08:57.256Z,15.20
2022-10-20T03:11:25.888Z,15.10
2022-10-20T03:13:52.734Z,15.10
2022-10-20T03:16:20.468Z,15.10
2022-10-20T03:18:47.337Z,15.00
2022-10-20T03:21:14.371Z,14.90
2022-10-20T03:23:41.183Z,14.80
2022-10-20T03:26:11.003Z,14.90
2022-10-20T03:28:39.191Z,14.80
2022-10-20T03:31:06.873Z,14.70
2022-10-20T03:33:34.729Z,14.60
2022-10-20T03:36:02.061Z,14.50
2022-10-20T03:38:28.959Z,14.60
2022-10-20T03:40:55.815Z,14.50
2022-10-20T03:43:22.737Z,14.50
2022-10-20T03:45:49.801Z,14.60
2022-10-20T03:48:16.797Z,14.60
2022-10-20T03:50:44.051Z,14.60
2022-10-20T03:53:14.244Z,14.70
2022-10-20T03:55:41.099Z,14.70
2022-10-20T03:58:08.031Z,14.60
2022-10-20T04:00:35.127Z,14.50
2022-10-20T04:03:01.950Z,14.50
2022-10-20T04:05:28.799Z,14.60
2022-10-20T04:07:55.667Z,14.60
2022-10-20T04:10:22.538Z,14.70
2022-10-20T04:12:49.504Z,14.70
2022-10-20T04:15:18.631Z,14.90
2022-10-20T04:17:45.932Z,14.80
2022-10-20T04:20:13.119Z,14.90
2022-10-20T04:22:40.624Z,15.00
2022-10-20T04:25:07.962Z,15.00
2022-10-20T04:27:35.185Z,14.90
2022-10-20T04:30:02.598Z,15.00
2022-10-20T04:32:29.600Z,15.10
2022-10-20T04:34:56.667Z,15.10
2022-10-20T04:37:23.663Z,15.10
2022-10-20T04:39:51.255Z,15.00
2022-10-20T04:42:19.103Z,15.10
2022-10-20T04:44:46.625Z,15.30
2022-10-20T04:47:17.836Z,15.10
2022-10-20T04:49:44.825Z,15.00
2022-10-20T04:52:11.768Z,14.90
2022-10-20T04:54:39.152Z,15.00
2022-10-20T04:57:06.553Z,15.00
2022-10-20T04:59:33.546Z,15.00
2022-10-20T05:02:00.623Z,15.00
2022-10-20T05:04:27.835Z,15.10
2022-10-20T05:06:54.639Z,15.10
2022-10-20T05:09:21.638Z,15.20
2022-10-20T05:11:48.654Z,15.30
2022-10-20T05:14:15.653Z,15.20
2022-10-20T05:16:42.658Z,15.10
2022-10-20T05:19:10.770Z,15.30
2022-10-20T05:21:37.717Z,15.30
2022-10-20T05:24:06.148Z,15.30
2022-10-20T05:26:37.249Z,15.30
2022-10-20T05:29:06.665Z,15.20
2022-10-20T05:31:38.245Z,15.30
2022-10-20T05:34:05.200Z,15.30
2022-10-20T05:36:32.179Z,15.30
2022-10-20T05:38:59.449Z,15.20
2022-10-20T05:41:34.882Z,15.20
2022-10-20T05:44:07.136Z,15.30
2022-10-20T05:46:35.764Z,15.30
2022-10-20T05:49:03.703Z,15.40
2022-10-20T05:51:33.762Z,15.50
2022-10-20T05:54:01.168Z,15.60
2022-10-20T05:56:29.727Z,15.90
2022-10-20T05:58:57.805Z,15.90
2022-10-20T06:01:39.607Z,15.80
2022-10-20T06:04:08.787Z,16.00
2022-10-20T06:06:36.285Z,15.90
2022-10-20T06:09:07.581Z,15.90
2022-10-20T06:11:39.254Z,16.00
2022-10-20T06:14:07.943Z,16.00
2022-10-20T06:16:35.286Z,16.00
2022-10-20T06:19:02.298Z,16.00
2022-10-20T06:21:32.488Z,16.10
2022-10-20T06:24:00.739Z,16.10
2022-10-20T06:26:30.065Z,16.20
2022-10-20T06:29:03.619Z,16.20
2022-10-20T06:31:39.079Z,16.20
2022-10-20T06:34:12.798Z,16.20
2022-10-20T06:36:41.939Z,16.20
2022-10-20T06:39:12.231Z,16.20
2022-10-20T06:41:39.752Z,16.30
2022-10-20T06:44:07.424Z,16.20
2022-10-20T06:46:36.563Z,16.30
2022-10-20T06:49:06.473Z,16.30
2022-10-20T06:51:34.386Z,16.40
2022-10-20T06:54:01.814Z,16.40
2022-10-20T06:56:30.562Z,16.30
2022-10-20T06:58:59.188Z,16.50
2022-10-20T07:01:36.159Z,16.30
2022-10-20T07:04:11.214Z,16.30
2022-10-20T07:06:40.532Z,16.30
2022-10-20T07:09:12.701Z,16.30
2022-10-20T07:11:39.994Z,16.50
2022-10-20T07:14:07.044Z,16.30
2022-10-20T07:16:35.094Z,16.30
2022-10-20T07:19:03.585Z,16.20
2022-10-20T07:21:35.768Z,16.10
2022-10-20T07:24:06.240Z,16.30
2022-10-20T07:26:35.969Z,16.40
2022-10-20T07:29:04.107Z,16.50
2022-10-20T07:31:36.882Z,16.50
2022-10-20T07:34:23.687Z,16.50
2022-10-20T07:36:52.275Z,16.40
2022-10-20T07:39:19.082Z,16.40
2022-10-20T07:41:47.841Z,16.50
2022-10-20T07:44:15.133Z,16.40
2022-10-20T07:46:42.118Z,16.40
2022-10-20T07:51:56.249Z,16.50
2022-10-20T07:54:23.301Z,16.60
2022-10-20T07:56:50.354Z,16.50
2022-10-20T07:59:17.672Z,16.60
2022-10-20T08:01:45.321Z,16.50
2022-10-20T08:04:12.188Z,16.50
2022-10-20T08:06:39.609Z,16.40
2022-10-20T08:09:07.468Z,16.40
2022-10-20T08:11:35.576Z,16.30
2022-10-20T08:14:03.210Z,16.30
2022-10-20T08:16:30.471Z,16.30
2022-10-20T08:19:21.709Z,16.30
2022-10-20T08:21:48.811Z,16.30
2022-10-20T08:24:15.670Z,16.40
2022-10-20T08:26:42.623Z,16.50
2022-10-20T08:29:10.268Z,16.40
2022-10-20T08:31:37.145Z,16.50
2022-10-20T08:34:04.254Z,16.70
2022-10-20T08:36:31.111Z,16.70
2022-10-20T08:39:05.064Z,16.80
2022-10-20T08:42:02.631Z,16.70
2022-10-20T08:44:32.580Z,16.60
2022-10-20T08:47:02.857Z,16.60
2022-10-20T08:49:32.977Z,16.80
2022-10-20T08:52:00.903Z,16.90
2022-10-20T08:54:27.955Z,17.00
2022-10-20T08:56:55.106Z,16.90
2022-10-20T08:59:29.922Z,16.90
2022-10-20T09:01:58.444Z,17.00
2022-10-20T09:04:47.688Z,16.90
2022-10-20T09:07:35.324Z,17.00
2022-10-20T09:10:30.529Z,17.10
2022-10-20T09:12:58.556Z,17.10
2022-10-20T09:15:29.067Z,17.20
2022-10-20T09:18:10.423Z,17.20
2022-10-20T09:20:44.908Z,17.40
2022-10-20T09:23:39.965Z,17.40
2022-10-20T09:26:32.086Z,17.40
2022-10-20T09:29:19.901Z,17.50
2022-10-20T09:31:53.836Z,17.60
2022-10-20T09:34:22.160Z,17.60
2022-10-20T09:36:50.915Z,17.40
2022-10-20T09:39:23.382Z,17.40
2022-10-20T09:41:58.902Z,17.50
2022-10-20T09:44:26.083Z,17.40
2022-10-20T09:46:54.559Z,17.50
2022-10-20T09:49:36.430Z,17.50
2022-10-20T09:52:14.177Z,17.50
2022-10-20T09:54:41.190Z,17.60
2022-10-20T09:57:14.994Z,17.70
2022-10-20T09:59:47.091Z,17.90
2022-10-20T10:02:15.629Z,17.90
2022-10-20T10:04:48.195Z,17.90
2022-10-20T10:07:27.200Z,17.90
2022-10-20T10:10:08.098Z,18.00
2022-10-20T10:12:36.086Z,18.10
2022-10-20T10:15:23.649Z,18.20
2022-10-20T10:17:51.261Z,18.10
2022-10-20T10:20:47.836Z,18.00
2022-10-20T10:23:21.882Z,18.10
2022-10-20T10:25:50.486Z,18.00
2022-10-20T10:28:22.471Z,17.90
2022-10-20T10:30:50.136Z,18.00
2022-10-20T10:33:23.294Z,18.10
2022-10-20T10:35:50.218Z,18.10
2022-10-20T10:38:17.716Z,18.30
2022-10-20T10:41:21.818Z,18.20
2022-10-20T10:44:14.182Z,18.30
2022-10-20T10:46:48.846Z,18.40
2022-10-20T10:49:47.137Z,18.50
2022-10-20T10:52:46.691Z,18.50
2022-10-20T10:55:47.921Z,18.60
2022-10-20T10:58:30.377Z,18.50
2022-10-20T11:01:12.825Z,18.40
2022-10-20T11:03:55.238Z,18.40
2022-10-20T11:06:30.982Z,18.40
2022-10-20T11:09:29.441Z,18.50
2022-10-20T11:12:23.619Z,18.50
2022-10-20T11:15:27.562Z,18.70
2022-10-20T11:18:15.008Z,18.80
2022-10-20T11:20:47.151Z,19.10
2022-10-20T11:23:19.857Z,19.10
2022-10-20T11:25:52.002Z,19.00
2022-10-20T11:28:44.644Z,19.10
2022-10-20T11:31:48.854Z,19.20
2022-10-20T11:34:30.184Z,19.60
2022-10-20T11:37:13.180Z,19.90
2022-10-20T11:39:48.088Z,20.50
2022-10-20T11:42:40.773Z,21.00
2022-10-20T11:45:30.324Z,21.40
2022-10-20T11:48:03.141Z,21.70
2022-10-20T11:50:31.846Z,22.10
2022-10-20T11:53:25.040Z,21.80
2022-10-20T11:56:09.783Z,21.60
2022-10-20T11:59:13.350Z,21.30
2022-10-20T12:02:19.369Z,21.00
2022-10-20T12:05:02.518Z,21.10
2022-10-20T12:08:00.838Z,21.00
2022-10-20T12:11:16.389Z,20.80
2022-10-20T12:14:12.556Z,20.70
2022-10-20T12:16:54.630Z,20.60
2022-10-20T12:19:30.135Z,20.90
2022-10-20T12:22:15.138Z,21.10
2022-10-20T12:25:02.395Z,21.30
2022-10-20T12:27:30.331Z,21.60
2022-10-20T12:30:18.572Z,22.10
2022-10-20T12:32:58.628Z,22.40
2022-10-20T12:35:25.381Z,22.60
2022-10-20T12:37:58.782Z,22.50
2022-10-20T12:40:31.565Z,22.20
2022-10-20T12:42:59.502Z,21.90
2022-10-20T12:45:39.183Z,22.10
2022-10-20T12:48:07.974Z,22.10
2022-10-20T12:50:42.056Z,22.30
2022-10-20T12:53:14.413Z,22.40
2022-10-20T12:55:44.201Z,22.70
2022-10-20T12:58:20.074Z,23.00
2022-10-20T13:00:47.261Z,23.10
2022-10-20T13:03:32.913Z,23.10
2022-10-20T13:06:00.897Z,23.40
2022-10-20T13:08:35.878Z,23.40
2022-10-20T13:11:41.109Z,23.60
2022-10-20T13:14:17.613Z,23.60
2022-10-20T13:16:50.666Z,23.40
2022-10-20T13:19:25.155Z,23.20
2022-10-20T13:21:52.551Z,23.30
2022-10-20T13:24:28.677Z,23.70
2022-10-20T13:26:59.757Z,23.60
2022-10-20T13:29:40.361Z,23.70
2022-10-20T13:32:13.041Z,23.60
2022-10-20T13:35:02.417Z,23.40
2022-10-20T13:37:44.703Z,23.10
2022-10-20T13:40:23.731Z,22.90
2022-10-20T13:43:09.474Z,22.60
2022-10-20T13:46:19.676Z,22.90
2022-10-20T13:48:55.327Z,23.00
2022-10-20T13:51:28.587Z,23.20
2022-10-20T13:54:05.669Z,23.70
2022-10-20T13:56:46.435Z,24.10
2022-10-20T13:59:19.453Z,24.20
2022-10-20T14:01:56.231Z,23.90
2022-10-20T14:04:37.159Z,24.10
2022-10-20T14:07:15.755Z,24.50
2022-10-20T14:09:46.783Z,24.10
2022-10-20T14:12:24.084Z,23.50
2022-10-20T14:14:51.469Z,23.00
2022-10-20T14:17:22.244Z,22.90
2022-10-20T14:19:51.255Z,22.90
2022-10-20T14:22:23.803Z,22.70
2022-10-20T14:24:56.892Z,22.70
2022-10-20T14:27:30.922Z,22.90
2022-10-20T14:29:58.660Z,23.00
2022-10-20T14:32:29.585Z,22.90
2022-10-20T14:35:14.588Z,22.90
2022-10-20T14:37:46.856Z,22.60
2022-10-20T14:40:28.812Z,22.50
2022-10-20T14:43:13.365Z,22.50
2022-10-20T14:45:40.676Z,22.70
2022-10-20T14:48:15.503Z,22.70
2022-10-20T14:50:42.470Z,22.60
2022-10-20T14:53:32.647Z,22.60
2022-10-20T14:56:02.670Z,22.80
2022-10-20T14:58:35.858Z,23.20
2022-10-20T15:01:24.427Z,23.30
2022-10-20T15:04:22.297Z,23.30
2022-10-20T15:06:49.790Z,23.20
2022-10-20T15:09:27.715Z,23.30
2022-10-20T15:11:57.821Z,23.40
2022-10-20T15:14:25.039Z,23.30
2022-10-20T15:16:53.941Z,23.30
2022-10-20T15:19:23.743Z,23.30
2022-10-20T15:22:08.149Z,23.20
2022-10-20T15:24:35.719Z,23.20
2022-10-20T15:27:03.137Z,23.30
2022-10-20T15:29:30.965Z,23.20
2022-10-20T15:31:58.332Z,22.80
2022-10-20T15:34:25.677Z,22.70
2022-10-20T15:36:52.619Z,22.70
2022-10-20T15:39:19.668Z,22.60
2022-10-20T15:41:49.011Z,22.60
2022-10-20T15:44:22.360Z,22.30
2022-10-20T15:46:53.401Z,22.40
2022-10-20T15:49:20.344Z,22.50
2022-10-20T15:51:50.429Z,22.30
2022-10-20T15:54:20.270Z,22.10
2022-10-20T15:56:47.637Z,22.20
2022-10-20T15:59:14.814Z,22.20
2022-10-20T16:01:42.147Z,22.20
2022-10-20T16:04:26.336Z,22.10
2022-10-20T16:06:57.828Z,22.00
2022-10-20T16:09:27.654Z,21.90
2022-10-20T16:12:04.395Z,21.80
2022-10-20T16:14:31.644Z,21.80
2022-10-20T16:17:01.136Z,21.80
2022-10-20T16:19:28.203Z,21.80
2022-10-20T16:21:55.180Z,21.70
2022-10-20T16:24:21.938Z,21.60
2022-10-20T16:26:49.720Z,21.60
2022-10-20T16:29:16.758Z,21.60
2022-10-20T16:31:43.721Z,21.50
2022-10-20T16:34:10.952Z,21.40
2022-10-20T16:36:38.497Z,21.30
2022-10-20T16:39:05.442Z,21.10
2022-10-20T16:41:32.386Z,21.00
2022-10-20T16:44:01.168Z,21.00
2022-10-20T16:46:28.384Z,20.80
2022-10-20T16:48:57.364Z,20.60
2022-10-20T16:51:24.630Z,20.50
2022-10-20T16:53:51.470Z,20.60
2022-10-20T16:56:20.841Z,20.50
2022-10-20T16:58:49.095Z,20.50
2022-10-20T17:01:18.955Z,20.40
2022-10-20T17:03:52.125Z,20.30
2022-10-20T17:06:21.871Z,20.30
2022-10-20T17:08:49.063Z,20.10
2022-10-20T17:11:19.805Z,20.10
2022-10-20T17:13:47.916Z,20.00
2022-10-20T17:16:17.779Z,20.00
2022-10-20T17:18:45.096Z,20.00
2022-10-20T17:21:14.261Z,20.00
2022-10-20T17:23:43.705Z,19.90
2022-10-20T17:26:22.296Z,19.80
2022-10-20T17:28:49.767Z,19.80
2022-10-20T17:31:18.307Z,19.70
2022-10-20T17:33:46.081Z,19.80
2022-10-20T17:36:13.503Z,19.80
2022-10-20T17:38:44.154Z,19.70
2022-10-20T17:41:14.529Z,19.70
2022-10-20T17:43:41.980Z,19.70
2022-10-20T17:46:14.455Z,19.70
2022-10-20T17:48:41.875Z,19.60
2022-10-20T17:51:14.898Z,19.60
2022-10-20T17:53:48.137Z,19.60
2022-10-20T17:56:21.011Z,19.60
2022-10-20T17:58:49.874Z,19.60
2022-10-20T18:01:21.008Z,19.60
2022-10-20T18:03:53.330Z,19.60
2022-10-20T18:06:22.459Z,19.50
2022-10-20T18:08:49.773Z,19.50
2022-10-20T18:11:19.786Z,19.50
2022-10-20T18:13:47.385Z,19.50
2022-10-20T18:16:16.941Z,19.50
2022-10-20T18:18:44.722Z,19.60
2022-10-20T18:21:13.304Z,19.70
2022-10-20T18:23:44.113Z,19.70
2022-10-20T18:26:15.149Z,19.70
2022-10-20T18:28:48.141Z,19.90
2022-10-20T18:31:20.354Z,19.80
2022-10-20T18:33:47.859Z,19.80
2022-10-20T18:36:16.606Z,19.90
2022-10-20T18:38:48.469Z,19.90
2022-10-20T18:41:19.581Z,19.90
2022-10-20T18:43:57.004Z,20.00
2022-10-20T18:46:26.382Z,20.10
2022-10-20T18:48:53.716Z,20.00
2022-10-20T18:51:20.855Z,20.00
2022-10-20T18:53:52.074Z,20.20
2022-10-20T18:56:20.818Z,20.20
2022-10-20T18:59:02.672Z,20.10
2022-10-20T19:01:32.778Z,20.10
2022-10-20T19:04:00.580Z,20.10
2022-10-20T19:06:47.731Z,20.20
2022-10-20T19:09:17.516Z,20.00
2022-10-20T19:11:45.793Z,19.90
2022-10-20T19:14:13.756Z,19.90
2022-10-20T19:16:43.071Z,19.70
2022-10-20T19:19:11.136Z,19.60
2022-10-20T19:21:38.469Z,19.50
2022-10-20T19:24:08.581Z,19.50
2022-10-20T19:26:40.829Z,19.40
2022-10-20T19:29:11.733Z,19.30
2022-10-20T19:31:52.982Z,19.50
2022-10-20T19:34:24.057Z,19.60
2022-10-20T19:36:51.732Z,19.60
2022-10-20T19:39:26.941Z,19.60
2022-10-20T19:41:59.041Z,19.50
2022-10-20T19:44:26.501Z,19.40
2022-10-20T19:46:53.540Z,19.20
2022-10-20T19:49:21.806Z,19.20
2022-10-20T19:51:49.300Z,19.10
2022-10-20T19:54:16.666Z,19.10
2022-10-20T19:56:43.786Z,19.20
2022-10-20T19:59:10.804Z,19.10
2022-10-20T20:01:39.481Z,19.10
2022-10-20T20:04:07.054Z,19.20
2022-10-20T20:06:35.161Z,19.30
2022-10-20T20:09:06.173Z,19.40
2022-10-20T20:11:36.201Z,19.50
2022-10-20T20:14:10.619Z,19.60
2022-10-20T20:16:39.183Z,19.60
2022-10-20T20:19:06.508Z,19.40
2022-10-20T20:21:33.740Z,19.40
2022-10-20T20:24:03.247Z,19.20
2022-10-20T20:26:32.414Z,19.00
2022-10-20T20:28:59.964Z,19.00
2022-10-20T20:31:27.961Z,19.10
2022-10-20T20:33:56.947Z,18.90
2022-10-20T20:36:28.029Z,18.80
2022-10-20T20:38:59.776Z,18.80
2022-10-20T20:41:30.160Z,19.00
2022-10-20T20:43:57.803Z,18.90
2022-10-20T20:46:29.390Z,18.90
2022-10-20T20:49:00.659Z,18.80
2022-10-20T20:51:29.051Z,18.90
2022-10-20T20:53:56.437Z,18.80
2022-10-20T20:56:26.794Z,18.60
2022-10-20T20:58:55.299Z,18.40
2022-10-20T21:01:25.312Z,18.40
2022-10-20T21:04:03.370Z,18.30
2022-10-20T21:07:00.635Z,18.20
2022-10-20T21:09:26.309Z,18.20
2022-10-20T21:11:53.193Z,18.20
2022-10-20T21:14:20.069Z,18.20
2022-10-20T21:16:47.056Z,18.00
2022-10-20T21:19:14.309Z,17.90
2022-10-20T21:21:44.385Z,17.90
2022-10-20T21:24:12.765Z,17.80
2022-10-20T21:26:39.859Z,17.80
2022-10-20T21:29:06.948Z,17.80
2022-10-20T21:31:33.994Z,17.70
2022-10-20T21:34:03.690Z,17.70
2022-10-20T21:36:32.918Z,17.80
2022-10-20T21:39:00.607Z,17.70
2022-10-20T21:41:30.068Z,17.80
2022-10-20T21:43:59.675Z,17.70
2022-10-20T21:46:32.497Z,17.70
2022-10-20T21:49:01.833Z,17.70
2022-10-20T21:51:37.090Z,17.80
2022-10-20T21:54:06.922Z,17.80
2022-10-20T21:56:40.195Z,17.80
2022-10-20T21:59:08.763Z,17.80
2022-10-20T22:01:36.111Z,17.80
2022-10-20T22:04:03.875Z,17.90
2022-10-20T22:06:30.828Z,17.80
2022-10-20T22:08:59.625Z,17.80
2022-10-20T22:11:30.056Z,17.80
2022-10-20T22:13:57.827Z,17.80
2022-10-20T22:16:34.770Z,17.70
2022-10-20T22:19:03.082Z,17.70
2022-10-20T22:21:30.701Z,17.60
2022-10-20T22:23:59.251Z,17.60
2022-10-20T22:26:27.976Z,17.60
2022-10-20T22:28:55.785Z,17.60
2022-10-20T22:31:23.632Z,17.60
2022-10-20T22:33:58.932Z,17.60
2022-10-20T22:36:27.130Z,17.70
2022-10-20T22:38:54.126Z,17.70
2022-10-20T22:41:21.663Z,17.80
2022-10-20T22:43:48.576Z,17.80
2022-10-20T22:46:16.036Z,17.80
2022-10-20T22:48:44.243Z,17.80
2022-10-20T22:51:11.900Z,17.90
2022-10-20T22:53:39.388Z,17.90
2022-10-20T22:56:09.047Z,18.10
2022-10-20T22:58:36.714Z,18.00
2022-10-20T23:01:09.788Z,18.00
2022-10-20T23:03:37.742Z,18.10
2022-10-20T23:06:13.577Z,18.10
2022-10-20T23:08:46.122Z,18.10
2022-10-20T23:11:13.544Z,18.10
2022-10-20T23:13:40.489Z,18.10
2022-10-20T23:16:07.963Z,18.00
2022-10-20T23:18:35.042Z,17.90
2022-10-20T23:21:01.880Z,18.00
2022-10-20T23:23:29.135Z,17.90
2022-10-20T23:25:57.545Z,17.80
2022-10-20T23:28:26.475Z,17.80
2022-10-20T23:30:53.427Z,17.70
2022-10-20T23:33:23.238Z,17.70
2022-10-20T23:35:50.141Z,17.60
2022-10-20T23:38:17.080Z,17.60
2022-10-20T23:40:44.356Z,17.80
2022-10-20T23:43:11.329Z,17.80
2022-10-20T23:45:38.301Z,17.80
2022-10-20T23:48:05.375Z,17.80
2022-10-20T23:50:32.495Z,17.80
2022-10-20T23:52:59.478Z,17.50
2022-10-20T23:55:26.643Z,17.50
2022-10-20T23:57:53.558Z,17.40
